sensor_id;sensor_type;location;lat;lon;timestamp;pressure;altitude;pressure_sealevel;temperature;humidity
53262;BME280;39658;51.090;-1.786;2023-10-09T00:01:25;101841.78;;;10.53;100.00
53262;BME280;39658;51.090;-1.786;2023-10-09T00:03:53;101836.75;;;10.48;100.00
53262;BME280;39658;51.090;-1.786;2023-10-09T00:06:21;101836.03;;;10.45;100.00
53262;BME280;39658;51.090;-1.786;2023-10-09T00:08:57;101836.19;;;10.41;100.00
53262;BME280;39658;51.090;-1.786;2023-10-09T00:11:37;101836.19;;;10.41;100.00
53262;BME280;39658;51.090;-1.786;2023-10-09T00:14:08;101836.25;;;10.40;100.00
53262;BME280;39658;51.090;-1.786;2023-10-09T00:16:36;101827.50;;;10.39;100.00
53262;BME280;39658;51.090;-1.786;2023-10-09T00:19:09;101827.50;;;10.39;100.00
53262;BME280;39658;51.090;-1.786;2023-10-09T00:21:45;101823.16;;;10.38;100.00
53262;BME280;39658;51.090;-1.786;2023-10-09T00:24:12;101827.44;;;10.41;100.00
53262;BME280;39658;51.090;-1.786;2023-10-09T00:26:49;101831.81;;;10.40;100.00
53262;BME280;39658;51.090;-1.786;2023-10-09T00:29:18;101839.81;;;10.39;100.00
53262;BME280;39658;51.090;-1.786;2023-10-09T00:31:51;101833.94;;;10.32;100.00
53262;BME280;39658;51.090;-1.786;2023-10-09T00:34:22;101833.53;;;10.22;100.00
53262;BME280;39658;51.090;-1.786;2023-10-09T00:36:51;101840.84;;;10.16;100.00
53262;BME280;39658;51.090;-1.786;2023-10-09T00:39:19;101827.13;;;10.09;100.00
53262;BME280;39658;51.090;-1.786;2023-10-09T00:42:06;101827.19;;;10.07;100.00
53262;BME280;39658;51.090;-1.786;2023-10-09T00:44:34;101832.59;;;10.04;100.00
53262;BME280;39658;51.090;-1.786;2023-10-09T00:47:06;101830.09;;;10.01;100.00
53262;BME280;39658;51.090;-1.786;2023-10-09T00:49:47;101829.31;;;9.99;100.00
53262;BME280;39658;51.090;-1.786;2023-10-09T00:52:15;101831.16;;;9.97;100.00
53262;BME280;39658;51.090;-1.786;2023-10-09T00:54:48;101828.81;;;9.91;100.00
53262;BME280;39658;51.090;-1.786;2023-10-09T00:57:18;101835.94;;;9.89;100.00
53262;BME280;39658;51.090;-1.786;2023-10-09T00:59:54;101840.50;;;9.85;100.00
53262;BME280;39658;51.090;-1.786;2023-10-09T01:02:26;101843.25;;;9.82;100.00
53262;BME280;39658;51.090;-1.786;2023-10-09T01:05:03;101840.06;;;9.76;100.00
53262;BME280;39658;51.090;-1.786;2023-10-09T01:07:45;101841.19;;;9.70;100.00
53262;BME280;39658;51.090;-1.786;2023-10-09T01:10:13;101835.97;;;9.68;100.00
53262;BME280;39658;51.090;-1.786;2023-10-09T01:12:42;101839.44;;;9.69;100.00
53262;BME280;39658;51.090;-1.786;2023-10-09T01:15:11;101841.31;;;9.67;100.00
53262;BME280;39658;51.090;-1.786;2023-10-09T01:18:02;101837.97;;;9.63;100.00
53262;BME280;39658;51.090;-1.786;2023-10-09T01:20:29;101835.34;;;9.63;100.00
53262;BME280;39658;51.090;-1.786;2023-10-09T01:23:03;101844.00;;;9.65;100.00
53262;BME280;39658;51.090;-1.786;2023-10-09T01:25:33;101838.81;;;9.64;100.00
53262;BME280;39658;51.090;-1.786;2023-10-09T01:28:08;101842.34;;;9.63;100.00
53262;BME280;39658;51.090;-1.786;2023-10-09T01:30:35;101844.84;;;9.66;100.00
53262;BME280;39658;51.090;-1.786;2023-10-09T01:33:07;101851.72;;;9.70;100.00
53262;BME280;39658;51.090;-1.786;2023-10-09T01:35:38;101848.88;;;9.75;100.00
53262;BME280;39658;51.090;-1.786;2023-10-09T01:38:13;101846.81;;;9.81;100.00
53262;BME280;39658;51.090;-1.786;2023-10-09T01:40:41;101843.84;;;9.89;100.00
53262;BME280;39658;51.090;-1.786;2023-10-09T01:43:09;101843.13;;;10.04;100.00
53262;BME280;39658;51.090;-1.786;2023-10-09T01:45:36;101846.84;;;10.19;100.00
53262;BME280;39658;51.090;-1.786;2023-10-09T01:48:07;101845.16;;;10.37;100.00
53262;BME280;39658;51.090;-1.786;2023-10-09T01:50:34;101857.69;;;10.51;100.00
53262;BME280;39658;51.090;-1.786;2023-10-09T01:53:02;101866.94;;;10.60;100.00
53262;BME280;39658;51.090;-1.786;2023-10-09T01:55:32;101858.25;;;10.58;100.00
53262;BME280;39658;51.090;-1.786;2023-10-09T01:58:04;101856.25;;;10.63;100.00
53262;BME280;39658;51.090;-1.786;2023-10-09T02:00:33;101852.66;;;10.64;100.00
53262;BME280;39658;51.090;-1.786;2023-10-09T02:03:07;101851.19;;;10.58;100.00
53262;BME280;39658;51.090;-1.786;2023-10-09T02:05:38;101853.44;;;10.49;100.00
53262;BME280;39658;51.090;-1.786;2023-10-09T02:08:05;101852.84;;;10.42;100.00
53262;BME280;39658;51.090;-1.786;2023-10-09T02:10:34;101849.66;;;10.35;100.00
53262;BME280;39658;51.090;-1.786;2023-10-09T02:13:04;101852.63;;;10.28;100.00
53262;BME280;39658;51.090;-1.786;2023-10-09T02:15:33;101850.25;;;10.21;100.00
53262;BME280;39658;51.090;-1.786;2023-10-09T02:18:26;101848.06;;;10.12;100.00
53262;BME280;39658;51.090;-1.786;2023-10-09T02:21:06;101851.03;;;10.04;100.00
53262;BME280;39658;51.090;-1.786;2023-10-09T02:23:39;101847.84;;;9.98;100.00
53262;BME280;39658;51.090;-1.786;2023-10-09T02:26:08;101838.63;;;9.87;100.00
53262;BME280;39658;51.090;-1.786;2023-10-09T02:28:42;101840.69;;;9.81;100.00
53262;BME280;39658;51.090;-1.786;2023-10-09T02:31:10;101829.53;;;9.76;100.00
53262;BME280;39658;51.090;-1.786;2023-10-09T02:33:38;101822.88;;;9.67;100.00
53262;BME280;39658;51.090;-1.786;2023-10-09T02:36:06;101818.88;;;9.58;100.00
53262;BME280;39658;51.090;-1.786;2023-10-09T02:38:33;101819.13;;;9.52;100.00
53262;BME280;39658;51.090;-1.786;2023-10-09T02:41:01;101817.66;;;9.46;100.00
53262;BME280;39658;51.090;-1.786;2023-10-09T02:43:47;101817.91;;;9.40;100.00
53262;BME280;39658;51.090;-1.786;2023-10-09T02:46:17;101814.72;;;9.32;100.00
53262;BME280;39658;51.090;-1.786;2023-10-09T02:48:46;101808.03;;;9.25;100.00
53262;BME280;39658;51.090;-1.786;2023-10-09T02:51:16;101802.31;;;9.15;100.00
53262;BME280;39658;51.090;-1.786;2023-10-09T02:53:59;101786.97;;;9.04;100.00
53262;BME280;39658;51.090;-1.786;2023-10-09T02:56:34;101789.81;;;9.00;100.00
53262;BME280;39658;51.090;-1.786;2023-10-09T02:59:04;101788.16;;;8.97;100.00
53262;BME280;39658;51.090;-1.786;2023-10-09T03:01:32;101792.66;;;8.95;100.00
53262;BME280;39658;51.090;-1.786;2023-10-09T03:04:02;101790.28;;;8.89;100.00
53262;BME280;39658;51.090;-1.786;2023-10-09T03:06:30;101785.09;;;8.87;100.00
53262;BME280;39658;51.090;-1.786;2023-10-09T03:08:59;101791.56;;;8.78;100.00
53262;BME280;39658;51.090;-1.786;2023-10-09T03:11:26;101786.63;;;8.71;100.00
53262;BME280;39658;51.090;-1.786;2023-10-09T03:13:53;101799.06;;;8.67;100.00
53262;BME280;39658;51.090;-1.786;2023-10-09T03:16:22;101794.75;;;8.65;100.00
53262;BME280;39658;51.090;-1.786;2023-10-09T03:18:51;101788.84;;;8.59;100.00
53262;BME280;39658;51.090;-1.786;2023-10-09T03:21:18;101782.72;;;8.59;100.00
53262;BME280;39658;51.090;-1.786;2023-10-09T03:23:46;101779.34;;;8.55;100.00
53262;BME280;39658;51.090;-1.786;2023-10-09T03:26:15;101779.34;;;8.55;100.00
53262;BME280;39658;51.090;-1.786;2023-10-09T03:28:43;101777.81;;;8.50;100.00
53262;BME280;39658;51.090;-1.786;2023-10-09T03:31:10;101781.34;;;8.50;100.00
53262;BME280;39658;51.090;-1.786;2023-10-09T03:33:38;101786.59;;;8.50;100.00
53262;BME280;39658;51.090;-1.786;2023-10-09T03:36:06;101791.78;;;8.52;100.00
53262;BME280;39658;51.090;-1.786;2023-10-09T03:38:35;101790.78;;;8.54;100.00
53262;BME280;39658;51.090;-1.786;2023-10-09T03:41:02;101788.78;;;8.61;100.00
53262;BME280;39658;51.090;-1.786;2023-10-09T03:43:33;101796.16;;;8.73;100.00
53262;BME280;39658;51.090;-1.786;2023-10-09T03:46:03;101799.53;;;8.77;100.00
53262;BME280;39658;51.090;-1.786;2023-10-09T03:48:31;101794.00;;;8.83;100.00
53262;BME280;39658;51.090;-1.786;2023-10-09T03:51:00;101799.28;;;8.83;100.00
53262;BME280;39658;51.090;-1.786;2023-10-09T03:53:34;101792.47;;;8.77;100.00
53262;BME280;39658;51.090;-1.786;2023-10-09T03:56:04;101796.16;;;8.73;100.00
53262;BME280;39658;51.090;-1.786;2023-10-09T03:58:38;101801.63;;;8.69;100.00
53262;BME280;39658;51.090;-1.786;2023-10-09T04:01:07;101799.19;;;8.64;100.00
53262;BME280;39658;51.090;-1.786;2023-10-09T04:03:35;101815.25;;;8.56;100.00
53262;BME280;39658;51.090;-1.786;2023-10-09T04:06:03;101805.34;;;8.63;100.00
53262;BME280;39658;51.090;-1.786;2023-10-09T04:08:33;101809.06;;;8.57;100.00
53262;BME280;39658;51.090;-1.786;2023-10-09T04:11:00;101814.75;;;8.47;100.00
53262;BME280;39658;51.090;-1.786;2023-10-09T04:13:31;101812.25;;;8.42;100.00
53262;BME280;39658;51.090;-1.786;2023-10-09T04:16:00;101818.56;;;8.38;100.00
53262;BME280;39658;51.090;-1.786;2023-10-09T04:18:35;101811.00;;;8.30;100.00
53262;BME280;39658;51.090;-1.786;2023-10-09T04:21:05;101815.59;;;8.25;100.00
53262;BME280;39658;51.090;-1.786;2023-10-09T04:23:44;101822.66;;;8.23;100.00
53262;BME280;39658;51.090;-1.786;2023-10-09T04:26:35;101823.75;;;8.17;100.00
53262;BME280;39658;51.090;-1.786;2023-10-09T04:29:02;101815.00;;;8.17;100.00
53262;BME280;39658;51.090;-1.786;2023-10-09T04:31:29;101818.38;;;8.20;100.00
53262;BME280;39658;51.090;-1.786;2023-10-09T04:34:03;101818.06;;;8.28;100.00
53262;BME280;39658;51.090;-1.786;2023-10-09T04:36:47;101813.25;;;8.39;100.00
53262;BME280;39658;51.090;-1.786;2023-10-09T04:39:15;101812.13;;;8.47;100.00
53262;BME280;39658;51.090;-1.786;2023-10-09T04:41:59;101817.88;;;8.56;100.00
53262;BME280;39658;51.090;-1.786;2023-10-09T04:44:40;101833.88;;;8.72;100.00
53262;BME280;39658;51.090;-1.786;2023-10-09T04:47:25;101836.50;;;8.94;100.00
53262;BME280;39658;51.090;-1.786;2023-10-09T04:49:51;101845.41;;;9.12;100.00
53262;BME280;39658;51.090;-1.786;2023-10-09T04:52:28;101837.06;;;9.23;100.00
53262;BME280;39658;51.090;-1.786;2023-10-09T04:55:09;101843.88;;;9.27;100.00
53262;BME280;39658;51.090;-1.786;2023-10-09T04:57:46;101844.75;;;9.28;100.00
53262;BME280;39658;51.090;-1.786;2023-10-09T05:00:13;101842.78;;;9.33;100.00
53262;BME280;39658;51.090;-1.786;2023-10-09T05:03:01;101847.25;;;9.31;100.00
53262;BME280;39658;51.090;-1.786;2023-10-09T05:05:36;101851.78;;;9.27;100.00
53262;BME280;39658;51.090;-1.786;2023-10-09T05:08:26;101858.97;;;9.24;100.00
53262;BME280;39658;51.090;-1.786;2023-10-09T05:10:56;101864.47;;;9.18;100.00
53262;BME280;39658;51.090;-1.786;2023-10-09T05:13:40;101851.84;;;9.05;100.00
53262;BME280;39658;51.090;-1.786;2023-10-09T05:16:23;101845.13;;;8.98;100.00
53262;BME280;39658;51.090;-1.786;2023-10-09T05:18:52;101847.06;;;8.93;100.00
53262;BME280;39658;51.090;-1.786;2023-10-09T05:21:22;101845.63;;;8.86;100.00
53262;BME280;39658;51.090;-1.786;2023-10-09T05:24:12;101844.09;;;8.80;100.00
53262;BME280;39658;51.090;-1.786;2023-10-09T05:26:49;101840.81;;;8.75;100.00
53262;BME280;39658;51.090;-1.786;2023-10-09T05:29:19;101854.91;;;8.72;100.00
53262;BME280;39658;51.090;-1.786;2023-10-09T05:32:00;101854.19;;;8.69;100.00
53262;BME280;39658;51.090;-1.786;2023-10-09T05:34:41;101845.50;;;8.67;100.00
53262;BME280;39658;51.090;-1.786;2023-10-09T05:37:33;101854.31;;;8.66;100.00
53262;BME280;39658;51.090;-1.786;2023-10-09T05:40:03;101868.31;;;8.66;100.00
53262;BME280;39658;51.090;-1.786;2023-10-09T05:42:49;101869.22;;;8.65;100.00
53262;BME280;39658;51.090;-1.786;2023-10-09T05:45:28;101877.09;;;8.65;100.00
53262;BME280;39658;51.090;-1.786;2023-10-09T05:48:12;101877.97;;;8.66;100.00
53262;BME280;39658;51.090;-1.786;2023-10-09T05:50:56;101874.13;;;8.74;100.00
53262;BME280;39658;51.090;-1.786;2023-10-09T05:54:06;101866.78;;;8.83;100.00
53262;BME280;39658;51.090;-1.786;2023-10-09T05:56:50;101864.03;;;8.86;100.00
53262;BME280;39658;51.090;-1.786;2023-10-09T05:59:33;101857.84;;;8.87;100.00
53262;BME280;39658;51.090;-1.786;2023-10-09T06:02:17;101854.44;;;8.85;100.00
53262;BME280;39658;51.090;-1.786;2023-10-09T06:05:04;101863.53;;;8.76;100.00
53262;BME280;39658;51.090;-1.786;2023-10-09T06:07:31;101862.09;;;8.69;100.00
53262;BME280;39658;51.090;-1.786;2023-10-09T06:10:27;101865.88;;;8.61;100.00
53262;BME280;39658;51.090;-1.786;2023-10-09T06:13:07;101868.44;;;8.63;100.00
53262;BME280;39658;51.090;-1.786;2023-10-09T06:15:54;101873.56;;;8.66;100.00
53262;BME280;39658;51.090;-1.786;2023-10-09T06:18:45;101883.78;;;8.74;100.00
53262;BME280;39658;51.090;-1.786;2023-10-09T06:21:19;101876.69;;;8.76;100.00
53262;BME280;39658;51.090;-1.786;2023-10-09T06:24:00;101883.72;;;8.75;100.00
53262;BME280;39658;51.090;-1.786;2023-10-09T06:26:41;101874.41;;;8.67;100.00
53262;BME280;39658;51.090;-1.786;2023-10-09T06:29:18;101875.53;;;8.61;100.00
53262;BME280;39658;51.090;-1.786;2023-10-09T06:32:01;101877.28;;;8.60;100.00
53262;BME280;39658;51.090;-1.786;2023-10-09T06:34:58;101883.41;;;8.61;100.00
53262;BME280;39658;51.090;-1.786;2023-10-09T06:37:39;101891.19;;;8.64;100.00
53262;BME280;39658;51.090;-1.786;2023-10-09T06:40:26;101882.06;;;8.73;100.00
53262;BME280;39658;51.090;-1.786;2023-10-09T06:43:11;101878.47;;;8.75;100.00
53262;BME280;39658;51.090;-1.786;2023-10-09T06:45:42;101875.66;;;8.80;100.00
53262;BME280;39658;51.090;-1.786;2023-10-09T06:48:20;101882.56;;;8.83;100.00
53262;BME280;39658;51.090;-1.786;2023-10-09T06:51:07;101891.06;;;8.89;100.00
53262;BME280;39658;51.090;-1.786;2023-10-09T06:53:39;101891.78;;;8.93;100.00
53262;BME280;39658;51.090;-1.786;2023-10-09T06:56:24;101902.94;;;9.00;100.00
53262;BME280;39658;51.090;-1.786;2023-10-09T06:59:12;101901.16;;;9.00;100.00
53262;BME280;39658;51.090;-1.786;2023-10-09T07:01:42;101908.91;;;9.03;100.00
53262;BME280;39658;51.090;-1.786;2023-10-09T07:04:09;101897.41;;;9.06;100.00
53262;BME280;39658;51.090;-1.786;2023-10-09T07:06:45;101889.38;;;9.09;100.00
53262;BME280;39658;51.090;-1.786;2023-10-09T07:09:16;101913.56;;;9.19;100.00
53262;BME280;39658;51.090;-1.786;2023-10-09T07:11:45;101930.00;;;9.24;100.00
53262;BME280;39658;51.090;-1.786;2023-10-09T07:14:29;101924.56;;;9.28;100.00
53262;BME280;39658;51.090;-1.786;2023-10-09T07:17:18;101919.09;;;9.33;100.00
53262;BME280;39658;51.090;-1.786;2023-10-09T07:20:10;101900.41;;;9.39;100.00
53262;BME280;39658;51.090;-1.786;2023-10-09T07:22:42;101901.75;;;9.49;100.00
53262;BME280;39658;51.090;-1.786;2023-10-09T07:25:22;101907.41;;;9.61;100.00
53262;BME280;39658;51.090;-1.786;2023-10-09T07:28:09;101919.34;;;9.69;100.00
53262;BME280;39658;51.090;-1.786;2023-10-09T07:30:54;101930.31;;;9.79;100.00
53262;BME280;39658;51.090;-1.786;2023-10-09T07:33:23;101930.69;;;9.91;100.00
53262;BME280;39658;51.090;-1.786;2023-10-09T07:36:11;101911.13;;;9.96;100.00
53262;BME280;39658;51.090;-1.786;2023-10-09T07:38:40;101921.84;;;10.12;100.00
53262;BME280;39658;51.090;-1.786;2023-10-09T07:41:10;101932.88;;;10.20;100.00
53262;BME280;39658;51.090;-1.786;2023-10-09T07:43:54;101937.75;;;10.30;100.00
53262;BME280;39658;51.090;-1.786;2023-10-09T07:46:22;101950.75;;;10.34;100.00
53262;BME280;39658;51.090;-1.786;2023-10-09T07:49:00;101971.50;;;10.42;100.00
53262;BME280;39658;51.090;-1.786;2023-10-09T07:51:35;101977.22;;;10.52;100.00
53262;BME280;39658;51.090;-1.786;2023-10-09T07:54:03;101977.72;;;10.60;100.00
53262;BME280;39658;51.090;-1.786;2023-10-09T07:56:33;101982.25;;;10.56;100.00
53262;BME280;39658;51.090;-1.786;2023-10-09T07:59:04;101988.91;;;10.65;100.00
53262;BME280;39658;51.090;-1.786;2023-10-09T08:01:37;101990.00;;;10.80;100.00
53262;BME280;39658;51.090;-1.786;2023-10-09T08:04:04;101998.94;;;10.95;100.00
53262;BME280;39658;51.090;-1.786;2023-10-09T08:06:37;102002.16;;;11.02;100.00
53262;BME280;39658;51.090;-1.786;2023-10-09T08:09:06;102006.00;;;11.13;100.00
53262;BME280;39658;51.090;-1.786;2023-10-09T08:12:04;102016.72;;;11.47;100.00
53262;BME280;39658;51.090;-1.786;2023-10-09T08:14:45;102011.22;;;11.69;100.00
53262;BME280;39658;51.090;-1.786;2023-10-09T08:17:14;102005.47;;;11.78;100.00
53262;BME280;39658;51.090;-1.786;2023-10-09T08:19:47;101976.56;;;11.93;100.00
53262;BME280;39658;51.090;-1.786;2023-10-09T08:22:24;101939.38;;;12.13;100.00
53262;BME280;39658;51.090;-1.786;2023-10-09T08:25:11;101927.66;;;12.35;100.00
53262;BME280;39658;51.090;-1.786;2023-10-09T08:27:54;101893.22;;;12.52;100.00
53262;BME280;39658;51.090;-1.786;2023-10-09T08:30:24;101862.53;;;12.64;100.00
53262;BME280;39658;51.090;-1.786;2023-10-09T08:33:14;101854.78;;;12.77;100.00
53262;BME280;39658;51.090;-1.786;2023-10-09T08:35:58;101852.47;;;12.87;100.00
53262;BME280;39658;51.090;-1.786;2023-10-09T08:38:29;101852.75;;;12.97;100.00
53262;BME280;39658;51.090;-1.786;2023-10-09T08:41:08;101834.63;;;13.05;100.00
53262;BME280;39658;51.090;-1.786;2023-10-09T08:43:50;101819.16;;;13.13;100.00
53262;BME280;39658;51.090;-1.786;2023-10-09T08:46:23;101812.78;;;13.32;100.00
53262;BME280;39658;51.090;-1.786;2023-10-09T08:48:52;101805.88;;;13.43;100.00
53262;BME280;39658;51.090;-1.786;2023-10-09T08:51:19;101803.94;;;13.61;100.00
53262;BME280;39658;51.090;-1.786;2023-10-09T08:53:46;101789.91;;;13.74;100.00
53262;BME280;39658;51.090;-1.786;2023-10-09T08:56:17;101783.66;;;13.75;100.00
53262;BME280;39658;51.090;-1.786;2023-10-09T08:58:49;101788.47;;;13.82;100.00
53262;BME280;39658;51.090;-1.786;2023-10-09T09:01:17;101812.63;;;13.92;100.00
53262;BME280;39658;51.090;-1.786;2023-10-09T09:03:48;101813.19;;;13.97;100.00
53262;BME280;39658;51.090;-1.786;2023-10-09T09:06:17;101799.44;;;14.05;100.00
53262;BME280;39658;51.090;-1.786;2023-10-09T09:08:45;101794.59;;;14.12;100.00
53262;BME280;39658;51.090;-1.786;2023-10-09T09:11:15;101766.72;;;14.19;100.00
53262;BME280;39658;51.090;-1.786;2023-10-09T09:13:44;101762.38;;;14.18;100.00
53262;BME280;39658;51.090;-1.786;2023-10-09T09:16:18;101778.66;;;14.26;100.00
53262;BME280;39658;51.090;-1.786;2023-10-09T09:18:58;101766.38;;;14.38;100.00
53262;BME280;39658;51.090;-1.786;2023-10-09T09:21:31;101788.81;;;14.47;100.00
53262;BME280;39658;51.090;-1.786;2023-10-09T09:24:03;101787.09;;;14.46;100.00
53262;BME280;39658;51.090;-1.786;2023-10-09T09:26:43;101774.88;;;14.43;100.00
53262;BME280;39658;51.090;-1.786;2023-10-09T09:29:24;101770.28;;;14.60;100.00
53262;BME280;39658;51.090;-1.786;2023-10-09T09:32:05;101780.09;;;14.72;100.00
53262;BME280;39658;51.090;-1.786;2023-10-09T09:34:43;101793.06;;;14.77;100.00
53262;BME280;39658;51.090;-1.786;2023-10-09T09:37:18;101787.69;;;14.91;100.00
53262;BME280;39658;51.090;-1.786;2023-10-09T09:39:46;101789.63;;;15.15;100.00
53262;BME280;39658;51.090;-1.786;2023-10-09T09:42:18;101779.75;;;15.30;100.00
53262;BME280;39658;51.090;-1.786;2023-10-09T09:44:51;101759.13;;;15.59;100.00
53262;BME280;39658;51.090;-1.786;2023-10-09T09:47:19;101733.31;;;15.98;100.00
53262;BME280;39658;51.090;-1.786;2023-10-09T09:49:52;101783.19;;;16.56;100.00
53262;BME280;39658;51.090;-1.786;2023-10-09T09:52:26;101740.00;;;16.63;100.00
53262;BME280;39658;51.090;-1.786;2023-10-09T09:54:53;101672.81;;;16.48;100.00
53262;BME280;39658;51.090;-1.786;2023-10-09T09:57:23;101633.03;;;16.69;100.00
53262;BME280;39658;51.090;-1.786;2023-10-09T09:59:53;101586.56;;;16.74;100.00
53262;BME280;39658;51.090;-1.786;2023-10-09T10:02:28;101526.03;;;17.10;100.00
53262;BME280;39658;51.090;-1.786;2023-10-09T10:05:00;101464.00;;;17.51;100.00
53262;BME280;39658;51.090;-1.786;2023-10-09T10:07:31;101401.34;;;17.88;100.00
53262;BME280;39658;51.090;-1.786;2023-10-09T10:10:33;101352.19;;;17.81;100.00
53262;BME280;39658;51.090;-1.786;2023-10-09T10:13:04;101336.91;;;18.14;100.00
53262;BME280;39658;51.090;-1.786;2023-10-09T10:16:05;101299.75;;;19.19;100.00
53262;BME280;39658;51.090;-1.786;2023-10-09T10:18:55;101281.53;;;19.43;100.00
53262;BME280;39658;51.090;-1.786;2023-10-09T10:21:32;101268.19;;;19.70;100.00
53262;BME280;39658;51.090;-1.786;2023-10-09T10:24:03;101275.59;;;19.49;100.00
53262;BME280;39658;51.090;-1.786;2023-10-09T10:26:35;101266.13;;;19.07;100.00
53262;BME280;39658;51.090;-1.786;2023-10-09T10:29:18;101250.59;;;19.68;100.00
53262;BME280;39658;51.090;-1.786;2023-10-09T10:31:59;101272.72;;;19.60;100.00
53262;BME280;39658;51.090;-1.786;2023-10-09T10:34:53;101312.81;;;21.07;100.00
53262;BME280;39658;51.090;-1.786;2023-10-09T10:37:21;101366.44;;;21.78;100.00
53262;BME280;39658;51.090;-1.786;2023-10-09T10:39:54;101421.59;;;22.84;100.00
53262;BME280;39658;51.090;-1.786;2023-10-09T10:42:25;101459.84;;;23.61;100.00
53262;BME280;39658;51.090;-1.786;2023-10-09T10:45:01;101493.78;;;25.39;100.00
53262;BME280;39658;51.090;-1.786;2023-10-09T10:47:40;101739.84;;;25.90;100.00
53262;BME280;39658;51.090;-1.786;2023-10-09T10:50:08;101727.88;;;24.97;100.00
53262;BME280;39658;51.090;-1.786;2023-10-09T10:55:54;101658.44;;;25.39;100.00
53262;BME280;39658;51.090;-1.786;2023-10-09T10:58:22;101702.31;;;25.95;100.00
53262;BME280;39658;51.090;-1.786;2023-10-09T11:01:02;101680.88;;;26.55;100.00
53262;BME280;39658;51.090;-1.786;2023-10-09T11:03:45;101695.50;;;27.44;100.00
53262;BME280;39658;51.090;-1.786;2023-10-09T11:06:25;101690.72;;;27.97;100.00
53262;BME280;39658;51.090;-1.786;2023-10-09T11:09:01;101667.22;;;28.54;100.00
53262;BME280;39658;51.090;-1.786;2023-10-09T11:11:46;101666.50;;;28.67;100.00
53262;BME280;39658;51.090;-1.786;2023-10-09T11:14:14;101670.88;;;29.03;100.00
53262;BME280;39658;51.090;-1.786;2023-10-09T11:16:44;101693.88;;;29.49;100.00
53262;BME280;39658;51.090;-1.786;2023-10-09T11:19:14;101686.50;;;30.04;100.00
53262;BME280;39658;51.090;-1.786;2023-10-09T11:21:54;101675.84;;;29.89;100.00
53262;BME280;39658;51.090;-1.786;2023-10-09T11:24:46;101672.97;;;29.01;100.00
53262;BME280;39658;51.090;-1.786;2023-10-09T11:27:26;101670.69;;;29.46;100.00
53262;BME280;39658;51.090;-1.786;2023-10-09T11:29:58;101677.09;;;30.07;100.00
53262;BME280;39658;51.090;-1.786;2023-10-09T11:32:35;101663.94;;;30.04;100.00
53262;BME280;39658;51.090;-1.786;2023-10-09T11:35:11;101660.72;;;31.46;100.00
53262;BME280;39658;51.090;-1.786;2023-10-09T11:37:37;101665.34;;;31.84;100.00
53262;BME280;39658;51.090;-1.786;2023-10-09T11:40:27;101659.75;;;32.29;100.00
53262;BME280;39658;51.090;-1.786;2023-10-09T11:42:59;101655.38;;;32.72;100.00
53262;BME280;39658;51.090;-1.786;2023-10-09T11:45:27;101645.88;;;33.12;100.00
53262;BME280;39658;51.090;-1.786;2023-10-09T11:47:57;101641.03;;;32.08;100.00
53262;BME280;39658;51.090;-1.786;2023-10-09T11:50:43;101638.69;;;31.86;100.00
53262;BME280;39658;51.090;-1.786;2023-10-09T11:53:16;101630.88;;;31.90;100.00
53262;BME280;39658;51.090;-1.786;2023-10-09T11:55:59;101621.44;;;32.17;100.00
53262;BME280;39658;51.090;-1.786;2023-10-09T11:58:25;101620.63;;;32.17;100.00
53262;BME280;39658;51.090;-1.786;2023-10-09T12:00:52;101600.69;;;32.79;100.00
53262;BME280;39658;51.090;-1.786;2023-10-09T12:03:24;101592.31;;;32.92;100.00
53262;BME280;39658;51.090;-1.786;2023-10-09T12:05:55;101587.38;;;33.19;100.00
53262;BME280;39658;51.090;-1.786;2023-10-09T12:08:22;101584.44;;;33.02;100.00
53262;BME280;39658;51.090;-1.786;2023-10-09T12:10:52;101574.94;;;32.31;100.00
53262;BME280;39658;51.090;-1.786;2023-10-09T12:13:20;101572.69;;;30.35;100.00
53262;BME280;39658;51.090;-1.786;2023-10-09T12:15:48;101569.97;;;31.07;100.00
53262;BME280;39658;51.090;-1.786;2023-10-09T12:18:17;101570.75;;;32.28;100.00
53262;BME280;39658;51.090;-1.786;2023-10-09T12:20:45;101565.19;;;33.27;100.00
53262;BME280;39658;51.090;-1.786;2023-10-09T12:23:16;101555.34;;;33.38;100.00
53262;BME280;39658;51.090;-1.786;2023-10-09T12:25:43;101551.56;;;33.39;100.00
53262;BME280;39658;51.090;-1.786;2023-10-09T12:28:11;101559.38;;;33.78;100.00
53262;BME280;39658;51.090;-1.786;2023-10-09T12:30:39;101549.50;;;33.89;100.00
53262;BME280;39658;51.090;-1.786;2023-10-09T12:33:07;101536.53;;;34.08;99.12
53262;BME280;39658;51.090;-1.786;2023-10-09T12:35:37;101527.03;;;33.75;99.63
53262;BME280;39658;51.090;-1.786;2023-10-09T12:38:06;101522.38;;;33.87;100.00
53262;BME280;39658;51.090;-1.786;2023-10-09T12:40:38;101520.72;;;33.74;100.00
53262;BME280;39658;51.090;-1.786;2023-10-09T12:43:06;101519.53;;;33.82;100.00
53262;BME280;39658;51.090;-1.786;2023-10-09T12:45:41;101529.31;;;33.78;100.00
53262;BME280;39658;51.090;-1.786;2023-10-09T12:48:08;101531.09;;;33.42;100.00
53262;BME280;39658;51.090;-1.786;2023-10-09T12:50:35;101530.88;;;33.43;100.00
53262;BME280;39658;51.090;-1.786;2023-10-09T12:53:08;101536.41;;;33.25;100.00
53262;BME280;39658;51.090;-1.786;2023-10-09T12:55:36;101547.69;;;33.71;100.00
53262;BME280;39658;51.090;-1.786;2023-10-09T12:58:06;101548.50;;;33.59;100.00
53262;BME280;39658;51.090;-1.786;2023-10-09T13:00:34;101548.22;;;33.37;100.00
53262;BME280;39658;51.090;-1.786;2023-10-09T13:03:04;101546.25;;;32.65;100.00
53262;BME280;39658;51.090;-1.786;2023-10-09T13:05:45;101557.28;;;32.15;100.00
53262;BME280;39658;51.090;-1.786;2023-10-09T13:08:22;101551.03;;;31.82;100.00
53262;BME280;39658;51.090;-1.786;2023-10-09T13:10:50;101552.03;;;31.88;100.00
53262;BME280;39658;51.090;-1.786;2023-10-09T13:13:27;101546.13;;;31.66;100.00
53262;BME280;39658;51.090;-1.786;2023-10-09T13:16:09;101538.25;;;31.83;100.00